Time;durP1;ratioP1;P1;durP2;ratioP2;P2;SDS_P1;SDS_P2;PMS_P1;PMS_P2;Temp;Humidity;BMP_temperature;BMP_pressure;BME280_temperature;BME280_humidity;BME280_pressure;Samples;Min_cycle;Max_cycle;Signal;HPM_P1;HPM_P2
2023/12/03 00:02:23;;;;;;;2.15;2.05;;;3.90;99.90;;;;;;5003163;28;20077;-85
2023/12/03 00:04:51;;;;;;;2.22;2.13;;;3.60;99.90;;;;;;4987250;28;20133;-86
2023/12/03 00:07:17;;;;;;;2.13;2.03;;;3.80;99.90;;;;;;4996743;28;20057;-85
2023/12/03 00:09:45;;;;;;;2.20;2.10;;;3.60;99.90;;;;;;5000810;28;20041;-87
2023/12/03 00:12:11;;;;;;;2.03;1.92;;;4.00;99.90;;;;;;4995692;28;20057;-86
2023/12/03 00:14:36;;;;;;;2.10;2.00;;;4.10;99.90;;;;;;5008378;28;20045;-87
2023/12/03 00:17:02;;;;;;;2.28;2.17;;;3.40;99.90;;;;;;4996412;28;20044;-85
2023/12/03 00:19:28;;;;;;;2.08;1.98;;;3.50;99.90;;;;;;5021537;28;20084;-86
2023/12/03 00:21:54;;;;;;;2.15;2.05;;;3.50;99.90;;;;;;4995710;28;20049;-86
2023/12/03 00:24:20;;;;;;;2.10;2.00;;;4.20;99.90;;;;;;5000053;28;20135;-86
2023/12/03 00:26:46;;;;;;;2.08;1.98;;;3.60;99.90;;;;;;4989070;28;20156;-86
2023/12/03 00:29:12;;;;;;;2.10;2.00;;;3.80;99.90;;;;;;4994146;28;20049;-88
2023/12/03 00:31:39;;;;;;;2.08;1.98;;;3.50;99.90;;;;;;4986431;28;20041;-86
2023/12/03 00:34:05;;;;;;;2.13;2.03;;;3.90;99.90;;;;;;5003348;28;20042;-86
2023/12/03 00:36:32;;;;;;;2.15;2.05;;;3.50;99.90;;;;;;5001673;28;20068;-87
2023/12/03 00:38:58;;;;;;;2.17;2.08;;;3.40;99.90;;;;;;5007366;28;20056;-86
2023/12/03 00:41:24;;;;;;;2.15;2.05;;;3.40;99.90;;;;;;5006873;28;20049;-86
2023/12/03 00:43:50;;;;;;;2.15;2.05;;;4.00;99.90;;;;;;4995359;28;20053;-85
2023/12/03 00:46:19;;;;;;;2.13;2.03;;;3.30;99.90;;;;;;4999853;28;20046;-86
2023/12/03 00:48:46;;;;;;;2.13;2.03;;;3.70;99.90;;;;;;5007620;28;20514;-86
2023/12/03 00:51:13;;;;;;;2.00;1.90;;;3.90;99.90;;;;;;4998352;28;20053;-85
2023/12/03 00:53:39;;;;;;;2.10;2.00;;;3.20;99.90;;;;;;5008026;28;20147;-85
2023/12/03 00:56:05;;;;;;;2.13;2.03;;;3.40;99.90;;;;;;5004824;28;20064;-86
2023/12/03 00:58:31;;;;;;;2.10;2.00;;;3.80;99.90;;;;;;4988475;28;20078;-86
2023/12/03 01:00:57;;;;;;;2.08;1.98;;;3.60;99.90;;;;;;4998791;28;20174;-86
2023/12/03 01:03:23;;;;;;;2.22;2.13;;;3.20;99.90;;;;;;4987327;28;20136;-87
2023/12/03 01:05:48;;;;;;;2.20;2.10;;;3.70;99.90;;;;;;4988214;28;20037;-86
2023/12/03 01:08:14;;;;;;;2.20;2.10;;;3.90;99.90;;;;;;5004984;28;20042;-86
2023/12/03 01:10:40;;;;;;;2.13;2.03;;;3.20;99.90;;;;;;4994959;28;20106;-86
2023/12/03 01:13:06;;;;;;;2.13;2.03;;;3.90;99.90;;;;;;4992139;28;20060;-86
2023/12/03 01:15:31;;;;;;;2.10;2.00;;;4.20;99.90;;;;;;5005094;28;20103;-85
2023/12/03 01:17:57;;;;;;;2.10;2.00;;;4.00;99.90;;;;;;5007056;28;20056;-86
2023/12/03 01:20:23;;;;;;;2.10;2.00;;;3.80;99.90;;;;;;5006889;28;20038;-85
2023/12/03 01:22:49;;;;;;;2.03;1.92;;;3.50;99.90;;;;;;5004993;28;20034;-87
2023/12/03 01:25:15;;;;;;;2.15;2.05;;;3.40;99.90;;;;;;4992271;28;20721;-85
2023/12/03 01:27:40;;;;;;;2.22;2.13;;;3.90;99.90;;;;;;4990171;28;20054;-88
2023/12/03 01:30:06;;;;;;;2.10;2.00;;;3.40;99.90;;;;;;4990643;28;20088;-86
2023/12/03 01:32:32;;;;;;;2.17;2.08;;;4.20;99.90;;;;;;5008289;28;20037;-87
2023/12/03 01:34:58;;;;;;;2.10;2.00;;;3.70;99.90;;;;;;5006562;28;20750;-87
2023/12/03 01:37:24;;;;;;;2.05;1.95;;;4.30;99.90;;;;;;4993646;28;20052;-87
2023/12/03 01:39:49;;;;;;;2.15;2.05;;;4.40;99.90;;;;;;5009759;28;20060;-88
2023/12/03 01:42:15;;;;;;;2.10;2.00;;;3.60;99.90;;;;;;5009508;28;20092;-87
2023/12/03 01:44:41;;;;;;;2.08;1.98;;;4.20;99.90;;;;;;4991049;28;20140;-87
2023/12/03 01:47:08;;;;;;;2.13;2.03;;;4.40;99.90;;;;;;5014019;28;20637;-86
2023/12/03 01:49:34;;;;;;;2.33;2.22;;;4.00;99.90;;;;;;5012420;28;20558;-85
2023/12/03 01:52:01;;;;;;;2.05;1.95;;;4.40;99.90;;;;;;5011198;28;20103;-87
2023/12/03 01:54:35;;;;;;;2.13;2.03;;;3.70;99.90;;;;;;5011710;28;20038;-87
2023/12/03 01:57:01;;;;;;;2.15;2.05;;;3.80;99.90;;;;;;5013659;28;20041;-87
2023/12/03 01:59:27;;;;;;;2.05;1.95;;;4.10;99.90;;;;;;4995561;28;20590;-88
2023/12/03 02:01:53;;;;;;;2.10;2.00;;;4.30;99.90;;;;;;5012691;28;20136;-87
2023/12/03 02:04:19;;;;;;;2.75;2.60;;;4.00;99.90;;;;;;5012352;28;20128;-85
2023/12/03 02:06:44;;;;;;;2.05;1.95;;;4.10;99.90;;;;;;5015690;28;20057;-87
2023/12/03 02:09:10;;;;;;;2.00;1.90;;;3.80;99.90;;;;;;5013176;28;20561;-85
2023/12/03 02:11:36;;;;;;;2.03;1.92;;;3.90;99.90;;;;;;5002000;28;20050;-87
2023/12/03 02:14:03;;;;;;;2.03;1.92;;;4.10;99.90;;;;;;4976261;28;20046;-86
2023/12/03 02:16:34;;;;;;;2.10;2.00;;;4.30;99.90;;;;;;4994607;28;20132;-85
2023/12/03 02:19:02;;;;;;;2.13;2.03;;;4.10;99.90;;;;;;5004211;28;20054;-86
2023/12/03 02:21:28;;;;;;;2.05;1.95;;;4.50;99.90;;;;;;4990271;28;20732;-86
2023/12/03 02:23:54;;;;;;;2.10;2.00;;;3.70;99.90;;;;;;5016839;28;20055;-88
2023/12/03 02:26:20;;;;;;;2.10;2.00;;;4.50;99.90;;;;;;4995474;28;20132;-88
2023/12/03 02:28:46;;;;;;;2.10;2.00;;;4.70;99.90;;;;;;4995948;28;20053;-87
2023/12/03 02:31:11;;;;;;;2.13;2.03;;;4.50;99.90;;;;;;4987459;28;20099;-88
2023/12/03 02:33:37;;;;;;;2.10;2.00;;;4.20;99.90;;;;;;4995719;28;20061;-86
2023/12/03 02:36:04;;;;;;;2.05;1.95;;;4.60;99.90;;;;;;4979158;28;20044;-88
2023/12/03 02:38:29;;;;;;;2.20;2.10;;;3.80;99.90;;;;;;4983112;28;20418;-86
2023/12/03 02:40:58;;;;;;;2.03;1.92;;;4.70;99.90;;;;;;4989834;28;20054;-88
2023/12/03 02:43:24;;;;;;;2.10;2.00;;;3.70;99.90;;;;;;4996592;28;20077;-88
2023/12/03 02:45:50;;;;;;;2.03;1.92;;;4.50;99.90;;;;;;5018519;28;20046;-86
2023/12/03 02:48:16;;;;;;;2.10;2.00;;;4.40;99.90;;;;;;4999120;28;20045;-88
2023/12/03 02:50:41;;;;;;;2.05;1.95;;;3.90;99.90;;;;;;4999967;28;20506;-87
2023/12/03 02:53:07;;;;;;;2.03;1.92;;;4.70;99.90;;;;;;5006498;28;20045;-87
2023/12/03 02:55:33;;;;;;;2.10;2.00;;;4.60;99.90;;;;;;4994942;28;20052;-86
2023/12/03 02:57:58;;;;;;;2.10;2.00;;;4.70;99.90;;;;;;5008571;28;20037;-87
2023/12/03 03:00:24;;;;;;;2.08;1.98;;;4.70;99.90;;;;;;5006496;28;20073;-87
2023/12/03 03:02:50;;;;;;;2.13;2.03;;;4.60;99.90;;;;;;4991643;28;20104;-86
2023/12/03 03:05:16;;;;;;;1.95;1.85;;;4.20;99.90;;;;;;5002548;28;20045;-86
2023/12/03 03:07:42;;;;;;;2.10;2.00;;;4.70;99.90;;;;;;5004632;28;20128;-88
2023/12/03 03:10:08;;;;;;;2.00;1.90;;;3.90;99.90;;;;;;4993657;28;20145;-88
2023/12/03 03:12:33;;;;;;;2.10;2.00;;;4.10;99.90;;;;;;4999971;28;20049;-87
2023/12/03 03:14:59;;;;;;;2.25;2.15;;;4.00;99.90;;;;;;5004847;28;20038;-90
2023/12/03 03:17:25;;;;;;;2.00;1.90;;;4.10;99.90;;;;;;5008804;28;20052;-87
2023/12/03 03:19:50;;;;;;;2.00;1.90;;;4.30;99.90;;;;;;4992288;28;20054;-86
2023/12/03 03:22:16;;;;;;;2.10;2.00;;;4.80;99.90;;;;;;5016519;28;20526;-86
2023/12/03 03:24:42;;;;;;;2.00;1.90;;;4.70;99.90;;;;;;5014343;28;20068;-88
2023/12/03 03:27:08;;;;;;;2.13;2.03;;;4.50;99.90;;;;;;5018012;28;20054;-86
2023/12/03 03:29:35;;;;;;;2.20;2.10;;;4.70;99.90;;;;;;4990368;28;20108;-86
2023/12/03 03:32:01;;;;;;;2.10;2.00;;;4.20;99.90;;;;;;5027476;28;20449;-87
2023/12/03 03:34:27;;;;;;;2.20;2.10;;;4.00;99.90;;;;;;5022096;28;20034;-86
2023/12/03 03:36:52;;;;;;;2.10;2.00;;;4.90;99.90;;;;;;5020310;28;20041;-87
2023/12/03 03:39:18;;;;;;;2.10;2.00;;;4.00;99.90;;;;;;5017187;28;20033;-86
2023/12/03 03:41:44;;;;;;;2.10;2.00;;;4.90;99.90;;;;;;5015307;28;20510;-87
2023/12/03 03:44:09;;;;;;;2.00;1.90;;;4.00;99.90;;;;;;5000190;28;20042;-86
2023/12/03 03:46:35;;;;;;;2.17;2.08;;;4.50;99.90;;;;;;5019834;28;20044;-85
2023/12/03 03:49:01;;;;;;;2.17;2.08;;;4.90;99.90;;;;;;5006846;28;20128;-87
2023/12/03 03:51:26;;;;;;;2.13;2.03;;;4.30;99.90;;;;;;4978310;28;20053;-86
2023/12/03 03:53:52;;;;;;;2.20;2.10;;;4.90;99.90;;;;;;5002158;28;20041;-86
2023/12/03 03:56:18;;;;;;;2.20;2.10;;;4.40;99.90;;;;;;4988262;28;20511;-86
2023/12/03 03:58:44;;;;;;;2.15;2.05;;;4.60;99.90;;;;;;5003047;28;20789;-86
2023/12/03 04:01:10;;;;;;;2.10;2.00;;;4.70;99.90;;;;;;5008730;28;20041;-85
2023/12/03 04:03:36;;;;;;;2.00;1.90;;;4.80;99.90;;;;;;4994375;28;20081;-86
2023/12/03 04:06:06;;;;;;;2.13;2.03;;;4.10;99.90;;;;;;5004726;28;20091;-85
2023/12/03 04:08:32;;;;;;;2.20;2.10;;;4.60;99.90;;;;;;5013743;28;20470;-86
2023/12/03 04:11:02;;;;;;;2.05;1.95;;;4.50;99.90;;;;;;4978971;28;20149;-86
2023/12/03 04:13:27;;;;;;;2.38;2.28;;;4.10;99.90;;;;;;4998739;28;20053;-85
2023/12/03 04:15:53;;;;;;;2.00;1.90;;;4.90;99.90;;;;;;5007994;28;20466;-85
2023/12/03 04:18:19;;;;;;;2.15;2.05;;;4.10;99.90;;;;;;5009743;28;20053;-86
2023/12/03 04:20:45;;;;;;;2.10;2.00;;;4.50;99.90;;;;;;4995551;28;20422;-86
2023/12/03 04:23:10;;;;;;;2.17;2.08;;;4.90;99.90;;;;;;5013982;28;20542;-86
2023/12/03 04:25:36;;;;;;;2.00;1.90;;;4.90;99.90;;;;;;5003954;28;20042;-86
2023/12/03 04:28:03;;;;;;;2.00;1.90;;;5.00;99.90;;;;;;4984945;28;20045;-86
2023/12/03 04:30:29;;;;;;;2.10;2.00;;;4.70;99.90;;;;;;4986555;28;20398;-86
2023/12/03 04:32:55;;;;;;;2.10;2.00;;;4.70;99.90;;;;;;5001595;28;20053;-86
2023/12/03 04:35:21;;;;;;;2.13;2.03;;;4.70;99.90;;;;;;5013136;28;20046;-86
2023/12/03 04:37:46;;;;;;;2.20;2.10;;;4.10;99.90;;;;;;4989184;28;20036;-86
2023/12/03 04:40:12;;;;;;;2.10;2.00;;;4.60;99.90;;;;;;5003712;28;20195;-86
2023/12/03 04:42:38;;;;;;;2.10;2.00;;;4.80;99.90;;;;;;5010149;28;20046;-86
2023/12/03 04:45:04;;;;;;;2.15;2.05;;;4.60;99.90;;;;;;5011747;28;20049;-86
2023/12/03 04:47:30;;;;;;;2.10;2.00;;;4.30;99.90;;;;;;4987200;28;20042;-87
2023/12/03 04:49:55;;;;;;;2.10;2.00;;;4.20;99.90;;;;;;4993281;28;20056;-87
2023/12/03 04:52:21;;;;;;;2.10;2.00;;;4.70;99.90;;;;;;4993798;28;20059;-86
2023/12/03 04:54:47;;;;;;;2.17;2.08;;;5.00;99.90;;;;;;5003755;28;20403;-87
2023/12/03 04:57:12;;;;;;;3.55;3.35;;;5.00;99.90;;;;;;5006934;28;20049;-86
2023/12/03 04:59:38;;;;;;;2.00;1.90;;;4.90;99.90;;;;;;5009644;28;20075;-86
2023/12/03 05:02:04;;;;;;;2.10;2.00;;;4.20;99.90;;;;;;5002430;28;20042;-86
2023/12/03 05:04:30;;;;;;;2.00;1.90;;;4.60;99.90;;;;;;4986344;28;20436;-87
2023/12/03 05:06:55;;;;;;;2.20;2.10;;;5.10;99.90;;;;;;5006344;28;20645;-85
2023/12/03 05:09:21;;;;;;;2.30;2.20;;;4.80;99.90;;;;;;5004109;28;20063;-85
2023/12/03 05:11:48;;;;;;;2.20;2.10;;;5.10;99.90;;;;;;4981250;28;20381;-86
2023/12/03 05:14:14;;;;;;;2.10;2.00;;;5.10;99.90;;;;;;5004505;28;20056;-86
2023/12/03 05:16:39;;;;;;;2.10;2.00;;;4.30;99.90;;;;;;5007074;28;20042;-87
2023/12/03 05:19:05;;;;;;;2.15;2.05;;;5.00;99.90;;;;;;5001738;28;20046;-87
2023/12/03 05:21:31;;;;;;;2.15;2.05;;;4.60;99.90;;;;;;4999956;28;20495;-86
2023/12/03 05:23:58;;;;;;;2.10;2.00;;;5.20;99.90;;;;;;5005364;28;20049;-86
2023/12/03 05:26:24;;;;;;;2.10;2.00;;;5.10;99.90;;;;;;4998565;28;20038;-86
2023/12/03 05:28:50;;;;;;;2.20;2.10;;;4.70;99.90;;;;;;5003361;28;20045;-87
2023/12/03 05:31:15;;;;;;;2.17;2.08;;;5.20;99.90;;;;;;5009713;28;20711;-86
2023/12/03 05:33:42;;;;;;;2.20;2.10;;;5.20;99.90;;;;;;4985341;28;20053;-87
2023/12/03 05:36:09;;;;;;;2.20;2.10;;;4.90;99.90;;;;;;5000543;28;20128;-87
2023/12/03 05:38:37;;;;;;;2.20;2.10;;;4.60;99.90;;;;;;5012833;28;20172;-86
2023/12/03 05:41:03;;;;;;;2.28;2.17;;;4.60;99.90;;;;;;4998889;28;20053;-86
2023/12/03 05:43:28;;;;;;;2.10;2.00;;;4.70;99.90;;;;;;5008890;28;20041;-87
2023/12/03 05:45:54;;;;;;;2.28;2.17;;;4.80;99.90;;;;;;5009663;28;20045;-86
2023/12/03 05:48:21;;;;;;;2.20;2.10;;;4.40;99.90;;;;;;5007020;28;20619;-87
2023/12/03 05:50:47;;;;;;;2.20;2.10;;;4.40;99.90;;;;;;5001763;28;20092;-87
2023/12/03 05:53:13;;;;;;;2.20;2.10;;;4.40;99.90;;;;;;5001891;28;20041;-86
2023/12/03 05:55:38;;;;;;;2.13;2.03;;;4.90;99.90;;;;;;4989382;28;20052;-87
2023/12/03 05:58:05;;;;;;;2.10;2.00;;;4.30;99.90;;;;;;5014865;28;20191;-86
2023/12/03 06:00:31;;;;;;;2.10;2.00;;;5.10;99.90;;;;;;5009799;28;20475;-86
2023/12/03 06:02:59;;;;;;;2.30;2.20;;;4.50;99.90;;;;;;5005801;28;20112;-86
2023/12/03 06:05:25;;;;;;;2.22;2.13;;;4.80;99.90;;;;;;4984580;28;20073;-86
2023/12/03 06:07:50;;;;;;;2.20;2.10;;;4.60;99.90;;;;;;4978459;28;20080;-86
2023/12/03 06:10:16;;;;;;;2.20;2.10;;;5.00;99.90;;;;;;4999287;28;20053;-87
2023/12/03 06:12:42;;;;;;;2.25;2.15;;;5.10;99.90;;;;;;5021082;28;20074;-87
2023/12/03 06:15:08;;;;;;;2.20;2.10;;;5.20;99.90;;;;;;5028152;28;20083;-87
2023/12/03 06:17:34;;;;;;;2.30;2.20;;;4.50;99.90;;;;;;5029530;28;20029;-87
2023/12/03 06:20:01;;;;;;;2.20;2.10;;;5.00;99.90;;;;;;5015391;28;20072;-87
2023/12/03 06:22:27;;;;;;;2.22;2.13;;;4.40;99.90;;;;;;5027747;28;20056;-87
2023/12/03 06:24:54;;;;;;;2.20;2.10;;;4.40;99.90;;;;;;5006667;28;20037;-87
2023/12/03 06:27:19;;;;;;;2.28;2.17;;;5.10;99.90;;;;;;5023929;28;20109;-87
2023/12/03 06:29:45;;;;;;;2.20;2.10;;;4.90;99.90;;;;;;5016219;28;20053;-86
2023/12/03 06:32:12;;;;;;;2.20;2.10;;;4.40;99.90;;;;;;4991263;28;20140;-87
2023/12/03 06:34:37;;;;;;;2.25;2.15;;;4.40;99.90;;;;;;4999695;28;20138;-87
2023/12/03 06:37:04;;;;;;;2.20;2.10;;;4.70;99.90;;;;;;5000774;28;20519;-87
2023/12/03 06:39:30;;;;;;;2.20;2.10;;;5.20;99.90;;;;;;4995601;28;20188;-87
2023/12/03 06:41:56;;;;;;;2.22;2.13;;;4.40;99.90;;;;;;5007305;28;20124;-87
2023/12/03 06:44:21;;;;;;;2.10;2.00;;;4.80;99.90;;;;;;5015145;28;20045;-87
2023/12/03 06:46:47;;;;;;;2.10;2.00;;;4.50;99.90;;;;;;4997084;28;20046;-87
2023/12/03 06:49:13;;;;;;;2.20;2.10;;;5.00;99.90;;;;;;4993791;28;20133;-86
2023/12/03 06:51:39;;;;;;;2.08;1.98;;;5.20;99.90;;;;;;4989767;28;20400;-87
2023/12/03 06:54:06;;;;;;;2.15;2.05;;;5.20;99.90;;;;;;4996387;28;20045;-87
2023/12/03 06:56:32;;;;;;;2.20;2.10;;;4.70;99.90;;;;;;4980538;28;20049;-86
2023/12/03 06:58:58;;;;;;;2.28;2.17;;;5.10;99.90;;;;;;5007844;28;20049;-87
2023/12/03 07:01:23;;;;;;;2.10;2.00;;;4.70;99.90;;;;;;4982025;28;20083;-87
2023/12/03 07:03:49;;;;;;;2.30;2.20;;;5.10;99.90;;;;;;4999465;28;20045;-87
2023/12/03 07:06:15;;;;;;;2.20;2.10;;;4.40;99.90;;;;;;4989184;28;20195;-87
2023/12/03 07:08:41;;;;;;;2.13;2.03;;;4.90;99.90;;;;;;5009425;28;20042;-87
2023/12/03 07:11:07;;;;;;;2.20;2.10;;;4.90;99.90;;;;;;5003238;28;20505;-87
2023/12/03 07:13:33;;;;;;;2.10;2.00;;;4.60;99.90;;;;;;4992629;28;20099;-87
2023/12/03 07:15:58;;;;;;;2.13;2.03;;;5.30;99.90;;;;;;5009140;28;20157;-87
2023/12/03 07:18:24;;;;;;;2.15;2.05;;;4.70;99.90;;;;;;5002704;28;20057;-87
2023/12/03 07:20:50;;;;;;;2.10;2.00;;;5.10;99.90;;;;;;5006989;28;20055;-87
2023/12/03 07:23:15;;;;;;;2.20;2.10;;;4.90;99.90;;;;;;5016142;28;20056;-87
2023/12/03 07:25:41;;;;;;;2.20;2.10;;;4.90;99.90;;;;;;5005968;28;20195;-87
2023/12/03 07:28:07;;;;;;;2.22;2.13;;;5.30;99.90;;;;;;5004054;28;20095;-87
2023/12/03 07:30:33;;;;;;;2.35;2.25;;;5.30;99.90;;;;;;5000487;28;20124;-91
2023/12/03 07:32:58;;;;;;;2.20;2.10;;;4.50;99.90;;;;;;4997664;28;20046;-87
2023/12/03 07:35:24;;;;;;;2.10;2.00;;;4.60;99.90;;;;;;5006728;28;20049;-87
2023/12/03 07:37:50;;;;;;;2.10;2.00;;;5.00;99.90;;;;;;5001933;28;20105;-91
2023/12/03 07:40:17;;;;;;;2.10;2.00;;;5.00;99.90;;;;;;4998732;28;20041;-86
2023/12/03 07:42:43;;;;;;;2.20;2.10;;;5.40;99.90;;;;;;4991731;28;20068;-87
2023/12/03 07:45:08;;;;;;;2.10;2.00;;;4.70;99.90;;;;;;5002200;28;20045;-88
2023/12/03 07:47:34;;;;;;;2.20;2.10;;;5.40;99.90;;;;;;5012580;28;20053;-87
2023/12/03 07:50:00;;;;;;;2.10;2.00;;;5.40;99.90;;;;;;5005839;28;20046;-86
2023/12/03 07:52:26;;;;;;;2.20;2.10;;;5.30;99.90;;;;;;5007134;28;20053;-86
2023/12/03 07:54:52;;;;;;;2.20;2.10;;;5.50;99.90;;;;;;5004609;28;20046;-87
2023/12/03 07:57:18;;;;;;;2.20;2.10;;;5.30;99.90;;;;;;5007722;28;20057;-87
2023/12/03 07:59:44;;;;;;;2.10;2.00;;;5.40;99.90;;;;;;5004210;28;20507;-87
2023/12/03 08:02:12;;;;;;;2.20;2.10;;;5.50;99.90;;;;;;5013900;28;20755;-93
2023/12/03 08:04:38;;;;;;;2.25;2.15;;;5.50;99.90;;;;;;5006259;28;20052;-87
2023/12/03 08:07:04;;;;;;;2.20;2.10;;;5.40;99.90;;;;;;5007526;28;20124;-87
2023/12/03 08:09:29;;;;;;;2.30;2.20;;;5.50;99.90;;;;;;4997291;28;20068;-88
2023/12/03 08:11:55;;;;;;;2.17;2.08;;;5.30;99.90;;;;;;4984414;28;20523;-91
2023/12/03 08:14:21;;;;;;;2.20;2.10;;;4.80;99.90;;;;;;5002330;28;20056;-91
2023/12/03 08:16:47;;;;;;;2.40;2.30;;;5.00;99.90;;;;;;4998583;28;20037;-88
2023/12/03 08:19:12;;;;;;;2.20;2.10;;;5.60;99.90;;;;;;5008852;28;20053;-88
2023/12/03 08:21:38;;;;;;;2.40;2.30;;;5.60;99.90;;;;;;5000857;28;20406;-88
2023/12/03 08:24:04;;;;;;;2.40;2.30;;;5.50;99.90;;;;;;5007846;28;20072;-88
2023/12/03 08:26:30;;;;;;;2.38;2.28;;;5.30;99.90;;;;;;4975842;28;20045;-87
2023/12/03 08:28:55;;;;;;;2.25;2.15;;;5.40;99.90;;;;;;4977723;28;20042;-89
2023/12/03 08:31:23;;;;;;;2.38;2.28;;;5.60;99.90;;;;;;5001185;28;20056;-89
2023/12/03 08:33:49;;;;;;;2.30;2.20;;;5.10;99.90;;;;;;5004605;28;20049;-88
2023/12/03 08:36:19;;;;;;;2.40;2.30;;;5.60;99.90;;;;;;5008134;28;20055;-87
2023/12/03 08:38:45;;;;;;;2.40;2.30;;;5.80;99.90;;;;;;4991819;28;20044;-86
2023/12/03 08:41:11;;;;;;;2.42;2.33;;;5.80;99.90;;;;;;4995065;28;20056;-87
2023/12/03 08:43:37;;;;;;;2.25;2.15;;;5.40;99.90;;;;;;5006038;28;20042;-88
2023/12/03 08:46:04;;;;;;;2.30;2.20;;;5.30;99.90;;;;;;5006405;28;20045;-88
2023/12/03 08:48:29;;;;;;;2.38;2.28;;;5.30;99.90;;;;;;5002826;28;20125;-86
2023/12/03 08:50:55;;;;;;;2.22;2.13;;;5.40;99.90;;;;;;4986891;28;20112;-87
2023/12/03 08:53:21;;;;;;;2.33;2.22;;;5.60;99.90;;;;;;5007271;28;20060;-84
2023/12/03 08:55:46;;;;;;;2.25;2.15;;;5.30;99.90;;;;;;5024610;28;20038;-87
2023/12/03 08:58:12;;;;;;;2.30;2.20;;;5.90;99.90;;;;;;5004090;28;20662;-88
2023/12/03 09:00:38;;;;;;;2.35;2.25;;;5.40;99.90;;;;;;5005526;28;20054;-87
2023/12/03 09:03:04;;;;;;;2.20;2.10;;;5.80;99.90;;;;;;5003102;28;20055;-86
2023/12/03 09:05:30;;;;;;;2.20;2.10;;;5.60;99.90;;;;;;5020919;28;20052;-87
2023/12/03 09:07:56;;;;;;;2.20;2.10;;;6.10;99.90;;;;;;4973185;28;20049;-87
2023/12/03 09:10:22;;;;;;;2.40;2.30;;;6.20;99.90;;;;;;4997630;28;20096;-86
2023/12/03 09:12:47;;;;;;;4.60;4.15;;;6.20;99.90;;;;;;4993194;28;20055;-87
2023/12/03 09:15:13;;;;;;;2.30;2.20;;;5.80;99.90;;;;;;4990634;28;20107;-87
2023/12/03 09:17:39;;;;;;;2.30;2.20;;;5.90;99.90;;;;;;4987597;28;20042;-87
2023/12/03 09:20:06;;;;;;;2.20;2.10;;;6.00;99.90;;;;;;5000909;28;20053;-87
2023/12/03 09:22:32;;;;;;;2.15;2.05;;;5.70;99.90;;;;;;4987373;28;20419;-90
2023/12/03 09:24:59;;;;;;;2.00;1.90;;;5.90;99.90;;;;;;4989145;28;20061;-87
2023/12/03 09:27:24;;;;;;;2.17;2.08;;;5.70;99.90;;;;;;5014187;28;20053;-88
2023/12/03 09:29:50;;;;;;;2.05;1.95;;;5.60;99.90;;;;;;4994145;28;20046;-87
2023/12/03 09:32:16;;;;;;;2.13;2.03;;;5.50;99.90;;;;;;5005069;28;20084;-87
2023/12/03 09:34:42;;;;;;;2.15;2.05;;;5.70;99.90;;;;;;4981898;28;21436;-87
2023/12/03 09:37:07;;;;;;;2.10;2.00;;;5.60;99.90;;;;;;4997902;28;20094;-88
2023/12/03 09:39:33;;;;;;;2.10;2.00;;;5.70;99.90;;;;;;4995538;28;20048;-87
2023/12/03 09:42:02;;;;;;;2.10;2.00;;;5.60;99.90;;;;;;4995809;28;20038;-92
2023/12/03 09:44:53;;;;;;;2.03;1.92;;;5.80;99.90;;;;;;4984658;28;20056;-92
2023/12/03 09:47:23;;;;;;;2.00;1.90;;;5.70;99.90;;;;;;5024652;28;20049;-90
2023/12/03 09:49:53;;;;;;;2.00;1.90;;;5.60;99.90;;;;;;4982220;28;20111;-87
2023/12/03 09:52:21;;;;;;;2.00;1.90;;;5.70;99.90;;;;;;4997151;28;20053;-90
2023/12/03 09:54:48;;;;;;;1.90;1.80;;;5.80;99.90;;;;;;5011588;28;20045;-87
2023/12/03 09:57:15;;;;;;;2.10;2.00;;;5.90;99.90;;;;;;5011683;28;20045;-88
2023/12/03 09:59:48;;;;;;;2.13;2.03;;;5.90;99.90;;;;;;4985045;28;20080;-88
2023/12/03 10:02:15;;;;;;;2.10;2.00;;;6.10;99.90;;;;;;4988083;28;20061;-87
2023/12/03 10:04:40;;;;;;;2.20;2.10;;;6.30;99.90;;;;;;5011022;28;20147;-88
2023/12/03 10:07:07;;;;;;;2.47;2.33;;;6.50;99.90;;;;;;4979419;28;20504;-84
2023/12/03 10:09:33;;;;;;;2.20;2.10;;;6.60;99.90;;;;;;4986064;28;20484;-88
2023/12/03 10:12:05;;;;;;;2.30;2.20;;;6.60;99.90;;;;;;4983719;28;20049;-91
2023/12/03 10:14:31;;;;;;;2.30;2.20;;;6.60;99.90;;;;;;5002409;28;20042;-86
2023/12/03 10:16:57;;;;;;;1.90;1.80;;;6.60;99.90;;;;;;5012633;28;20395;-88
2023/12/03 10:19:23;;;;;;;2.30;2.20;;;6.50;99.90;;;;;;5013925;28;20042;-90
2023/12/03 10:21:58;;;;;;;2.20;2.10;;;6.50;99.90;;;;;;4999281;28;20108;-93
2023/12/03 10:24:24;;;;;;;2.10;2.00;;;6.20;99.90;;;;;;5002779;28;20052;-93
2023/12/03 10:26:55;;;;;;;1.80;1.70;;;6.10;99.90;;;;;;5009215;28;20125;-85
2023/12/03 10:29:23;;;;;;;2.00;1.90;;;6.20;99.90;;;;;;5007492;28;20140;-87
2023/12/03 10:31:50;;;;;;;1.80;1.70;;;6.10;99.90;;;;;;5003709;28;20056;-90
2023/12/03 10:34:17;;;;;;;2.00;1.90;;;6.20;99.90;;;;;;5004234;28;20107;-91
2023/12/03 10:36:43;;;;;;;2.00;1.90;;;6.10;99.90;;;;;;4991497;28;20099;-92
2023/12/03 10:39:09;;;;;;;1.90;1.80;;;6.00;99.90;;;;;;5004778;28;20045;-91
2023/12/03 10:41:35;;;;;;;1.80;1.70;;;6.00;99.90;;;;;;5008473;28;20101;-92
2023/12/03 10:44:02;;;;;;;1.80;1.70;;;6.00;99.90;;;;;;5013909;28;20080;-90
2023/12/03 10:46:28;;;;;;;1.70;1.60;;;6.00;99.90;;;;;;5005680;28;20037;-92
2023/12/03 10:48:54;;;;;;;2.00;1.90;;;6.30;99.90;;;;;;4994401;28;20052;-90
2023/12/03 10:54:36;;;;;;;2.03;1.92;;;6.30;99.90;;;;;;5003726;28;20140;-92
2023/12/03 10:57:03;;;;;;;2.00;1.90;;;6.10;99.90;;;;;;5005983;28;20124;-94
2023/12/03 10:59:37;;;;;;;1.90;1.80;;;5.90;99.90;;;;;;5013441;28;20108;-92
2023/12/03 11:02:11;;;;;;;2.00;1.90;;;6.20;99.90;;;;;;5012514;28;20041;-92
2023/12/03 11:04:53;;;;;;;2.00;1.90;;;6.00;99.90;;;;;;4984882;28;20038;-93
2023/12/03 11:07:22;;;;;;;1.83;1.73;;;5.80;99.90;;;;;;5015843;28;20037;-92
2023/12/03 11:09:49;;;;;;;1.90;1.80;;;5.80;99.90;;;;;;5014058;28;20483;-90
2023/12/03 11:12:17;;;;;;;2.08;1.95;;;5.80;99.90;;;;;;4997996;28;20049;-91
2023/12/03 11:14:44;;;;;;;2.05;1.95;;;5.80;99.90;;;;;;5006904;28;20068;-93
2023/12/03 11:17:23;;;;;;;2.10;2.00;;;5.70;99.90;;;;;;5009843;28;20045;-92
2023/12/03 11:19:53;;;;;;;2.10;2.00;;;5.70;99.90;;;;;;5012663;28;20048;-93
2023/12/03 11:22:31;;;;;;;2.17;2.08;;;5.70;99.90;;;;;;4994493;28;20042;-93
2023/12/03 11:25:23;;;;;;;2.20;2.10;;;5.70;99.90;;;;;;5006952;28;20333;-93
2023/12/03 11:27:51;;;;;;;2.20;2.10;;;5.70;99.90;;;;;;5028176;28;20095;-94
2023/12/03 11:30:40;;;;;;;2.50;2.40;;;5.70;99.90;;;;;;5015055;28;20060;-94
2023/12/03 11:33:22;;;;;;;2.22;2.13;;;5.70;99.90;;;;;;5007458;28;20056;-91
2023/12/03 11:35:58;;;;;;;2.40;2.30;;;5.70;99.90;;;;;;5017014;28;20044;-94
2023/12/03 11:39:02;;;;;;;2.30;2.20;;;5.80;99.90;;;;;;4987497;28;20121;-95
2023/12/03 11:41:39;;;;;;;2.22;2.13;;;5.90;99.90;;;;;;4984938;28;20046;-95
2023/12/03 11:44:26;;;;;;;2.20;2.10;;;6.10;99.90;;;;;;5012637;28;20045;-95
2023/12/03 11:47:08;;;;;;;2.40;2.30;;;5.90;99.90;;;;;;5014630;28;20037;-94
2023/12/03 11:50:40;;;;;;;2.40;2.30;;;6.10;99.90;;;;;;5009882;28;20053;-95
2023/12/03 11:53:16;;;;;;;2.90;2.70;;;6.40;99.90;;;;;;4999262;28;20057;-94
2023/12/03 11:55:47;;;;;;;2.20;2.10;;;6.70;99.90;;;;;;5014022;28;20041;-92
2023/12/03 11:58:14;;;;;;;2.55;2.45;;;6.80;99.90;;;;;;5010650;28;20188;-93
2023/12/03 12:00:45;;;;;;;2.95;2.75;;;6.80;99.90;;;;;;5013537;28;20403;-95
2023/12/03 12:03:14;;;;;;;2.38;2.28;;;6.80;99.90;;;;;;5010692;28;20114;-94
2023/12/03 12:05:49;;;;;;;2.15;2.05;;;6.80;99.90;;;;;;5001241;28;20045;-92
2023/12/03 12:08:26;;;;;;;2.55;2.45;;;6.40;99.90;;;;;;5007579;28;20065;-95
2023/12/03 12:10:55;;;;;;;2.13;2.03;;;6.40;99.90;;;;;;4995773;28;20124;-93
2023/12/03 12:13:45;;;;;;;2.22;2.13;;;6.00;99.90;;;;;;4998844;28;20124;-95
2023/12/03 12:16:12;;;;;;;2.30;2.20;;;6.00;99.90;;;;;;4987025;28;20050;-90
2023/12/03 12:18:38;;;;;;;2.20;2.10;;;5.90;99.90;;;;;;5012234;28;20133;-91
2023/12/03 12:21:11;;;;;;;1.85;1.75;;;6.00;99.90;;;;;;5006292;28;20049;-93
2023/12/03 12:23:37;;;;;;;2.03;1.92;;;6.30;99.90;;;;;;4995586;28;20044;-91
2023/12/03 12:26:03;;;;;;;2.13;2.03;;;6.70;99.90;;;;;;5011857;28;20491;-92
2023/12/03 12:28:29;;;;;;;1.95;1.85;;;7.00;99.90;;;;;;4994194;28;20108;-92
2023/12/03 12:31:01;;;;;;;2.17;2.08;;;7.20;99.90;;;;;;5010015;28;20041;-95
2023/12/03 12:33:27;;;;;;;2.90;2.70;;;7.20;99.90;;;;;;5011031;28;20824;-90
2023/12/03 12:36:11;;;;;;;2.63;2.53;;;7.30;99.90;;;;;;5011853;28;20041;-95
2023/12/03 12:38:43;;;;;;;2.45;2.35;;;7.30;99.90;;;;;;4997221;28;20048;-90
2023/12/03 12:41:13;;;;;;;2.28;2.17;;;7.60;99.90;;;;;;5010660;28;20080;-93
2023/12/03 12:44:19;;;;;;;2.28;2.17;;;7.60;99.90;;;;;;5007829;28;20037;-91
2023/12/03 12:47:00;;;;;;;2.35;2.25;;;7.60;99.90;;;;;;4985435;28;20053;-94
2023/12/03 12:50:07;;;;;;;2.30;2.20;;;7.60;99.90;;;;;;4996711;28;20053;-92
2023/12/03 12:52:40;;;;;;;2.53;2.42;;;7.60;99.90;;;;;;5005024;28;20053;-93
2023/12/03 12:55:06;;;;;;;1.60;1.50;;;7.40;99.90;;;;;;5007115;28;20045;-94
2023/12/03 12:58:08;;;;;;;2.35;2.25;;;7.30;99.90;;;;;;5005538;28;20435;-94
2023/12/03 13:00:55;;;;;;;2.22;2.13;;;7.20;99.90;;;;;;5024848;28;20053;-92
2023/12/03 13:06:16;;;;;;;1.48;1.40;;;6.90;99.90;;;;;;5002864;28;20621;-92
2023/12/03 13:08:51;;;;;;;1.30;1.30;;;6.80;99.90;;;;;;5009854;28;20048;-94